Time;durP1;ratioP1;P1;durP2;ratioP2;P2;SDS_P1;SDS_P2;PMS_P1;PMS_P2;Temp;Humidity;BMP_temperature;BMP_pressure;BME280_temperature;BME280_humidity;BME280_pressure;Samples;Min_cycle;Max_cycle;Signal;HPM_P1;HPM_P2
2021/10/26 00:01:47;;;;;;;128.90;82.13;;;179.60;2252.80;;;;;;5093994;28;20115;-77
2021/10/26 00:04:12;;;;;;;122.43;78.78;;;179.60;2252.80;;;;;;5094371;28;20455;-77
2021/10/26 00:06:38;;;;;;;126.63;82.43;;;179.50;2252.80;;;;;;5094433;28;20460;-78
2021/10/26 00:09:05;;;;;;;137.88;89.85;;;179.50;2252.80;;;;;;5093205;28;20031;-77
2021/10/26 00:11:32;;;;;;;135.50;84.35;;;179.40;2252.80;;;;;;5092620;28;20027;-78
2021/10/26 00:13:58;;;;;;;140.30;91.15;;;179.50;2252.80;;;;;;5094528;28;20477;-78
2021/10/26 00:16:25;;;;;;;142.63;95.07;;;179.50;2252.80;;;;;;5093612;28;20359;-77
2021/10/26 00:18:50;;;;;;;112.43;73.75;;;179.60;2252.80;;;;;;5093889;28;20016;-77
2021/10/26 00:21:16;;;;;;;119.38;76.88;;;179.30;2252.80;;;;;;5094374;28;20047;-77
2021/10/26 00:23:42;;;;;;;117.00;79.20;;;179.20;2252.80;;;;;;5094357;28;20023;-78
2021/10/26 00:26:09;;;;;;;118.95;84.47;;;179.20;2252.80;;;;;;5093057;28;20356;-77
2021/10/26 00:28:35;;;;;;;121.95;79.97;;;154.50;2252.80;;;;;;5092894;28;20031;-78
2021/10/26 00:31:02;;;;;;;91.55;61.95;;;179.20;2252.80;;;;;;5092747;28;20085;-77
2021/10/26 00:33:31;;;;;;;86.88;56.08;;;179.20;2252.80;;;;;;5092922;28;20024;-77
2021/10/26 00:35:57;;;;;;;76.78;50.30;;;179.20;2252.80;;;;;;5094159;28;20142;-76
2021/10/26 00:38:23;;;;;;;101.68;66.00;;;179.30;2252.80;;;;;;5092506;28;20023;-76
2021/10/26 00:40:49;;;;;;;101.78;64.63;;;154.50;2252.80;;;;;;5092737;28;20036;-75
2021/10/26 00:43:16;;;;;;;107.53;67.13;;;179.20;2252.80;;;;;;5092889;28;20451;-76
2021/10/26 00:45:42;;;;;;;102.63;60.90;;;154.50;2252.80;;;;;;5092392;28;20471;-76
2021/10/26 00:48:08;;;;;;;87.90;58.17;;;179.20;2252.80;;;;;;5092681;28;20024;-76
2021/10/26 00:50:35;;;;;;;77.30;53.33;;;154.40;2252.80;;;;;;5093967;28;20024;-76
2021/10/26 00:53:00;;;;;;;78.55;52.38;;;154.50;2252.80;;;;;;5092340;28;20023;-76
2021/10/26 00:55:26;;;;;;;72.55;42.80;;;179.20;2252.80;;;;;;5093778;28;20065;-75
2021/10/26 00:57:52;;;;;;;55.03;33.88;;;179.20;2252.80;;;;;;5092620;28;20043;-75
2021/10/26 01:00:20;;;;;;;45.85;28.60;;;179.30;2252.80;;;;;;5093366;28;20047;-76
2021/10/26 01:02:46;;;;;;;47.40;27.33;;;179.20;2252.80;;;;;;5095215;28;20024;-77
2021/10/26 01:05:14;;;;;;;38.58;25.50;;;179.20;2252.80;;;;;;5093969;28;20024;-77
2021/10/26 01:07:40;;;;;;;32.58;23.77;;;179.20;2252.80;;;;;;5093825;28;20061;-75
2021/10/26 01:10:08;;;;;;;73.65;47.45;;;154.20;2252.80;;;;;;5092922;28;20365;-77
2021/10/26 01:12:35;;;;;;;114.22;68.70;;;154.50;2252.80;;;;;;5092596;28;20047;-77
2021/10/26 01:15:01;;;;;;;114.80;71.15;;;179.20;2252.80;;;;;;5092705;28;20089;-76
2021/10/26 01:17:27;;;;;;;101.68;65.38;;;179.40;2252.80;;;;;;5093338;28;20020;-76
2021/10/26 01:19:55;;;;;;;100.80;66.50;;;179.20;2252.80;;;;;;5091998;28;20121;-77
2021/10/26 01:22:27;;;;;;;88.65;59.05;;;154.40;2252.80;;;;;;5093852;28;20020;-77
2021/10/26 01:24:54;;;;;;;97.47;63.53;;;154.40;2252.80;;;;;;5096412;28;20448;-76
2021/10/26 01:27:20;;;;;;;90.28;60.50;;;154.30;2252.80;;;;;;5096191;28;20039;-77
2021/10/26 01:29:47;;;;;;;101.25;72.15;;;154.20;2252.80;;;;;;5096277;28;20459;-77
2021/10/26 01:32:16;;;;;;;101.57;65.88;;;154.20;2252.80;;;;;;5097298;28;20060;-77
2021/10/26 01:34:42;;;;;;;109.15;69.75;;;154.10;2252.80;;;;;;5096052;28;20486;-77
2021/10/26 01:37:10;;;;;;;124.47;77.38;;;154.10;2252.80;;;;;;5096261;28;20020;-76
2021/10/26 01:39:36;;;;;;;108.70;68.93;;;153.80;2252.80;;;;;;5096214;28;20020;-78
2021/10/26 01:42:03;;;;;;;104.70;67.53;;;153.60;2252.80;;;;;;5097158;28;20040;-77
2021/10/26 01:44:29;;;;;;;123.07;77.97;;;153.80;2252.80;;;;;;5096005;28;20020;-78
2021/10/26 01:46:55;;;;;;;106.47;69.20;;;128.90;2252.80;;;;;;5096102;28;20023;-76
2021/10/26 01:49:22;;;;;;;104.95;67.22;;;128.90;2252.80;;;;;;5096799;28;20359;-77
2021/10/26 01:51:50;;;;;;;112.18;72.45;;;128.80;2252.80;;;;;;5096016;28;20110;-76
2021/10/26 01:54:16;;;;;;;112.45;72.00;;;153.60;2252.80;;;;;;5095884;28;20024;-78
2021/10/26 01:56:43;;;;;;;152.05;86.40;;;153.60;2252.80;;;;;;5095604;28;20020;-78
2021/10/26 01:59:09;;;;;;;124.55;73.03;;;153.90;2252.80;;;;;;5095866;28;20016;-75
2021/10/26 02:01:35;;;;;;;93.68;56.38;;;154.00;2252.80;;;;;;5095160;28;20044;-76
2021/10/26 02:04:01;;;;;;;237.93;97.15;;;153.80;2252.80;;;;;;5096979;28;20089;-77
2021/10/26 02:06:27;;;;;;;156.77;76.80;;;153.80;2252.80;;;;;;5095741;28;20020;-76
2021/10/26 02:08:53;;;;;;;123.85;60.58;;;153.90;2252.80;;;;;;5095356;28;20112;-76
2021/10/26 02:11:19;;;;;;;110.13;58.58;;;154.00;2252.80;;;;;;5095318;28;20093;-77
2021/10/26 02:13:44;;;;;;;103.00;58.40;;;154.00;2252.80;;;;;;5095484;28;20016;-76
2021/10/26 02:16:10;;;;;;;100.32;62.58;;;154.10;2252.80;;;;;;5095176;28;20081;-78
2021/10/26 02:18:36;;;;;;;77.72;49.00;;;154.00;2252.80;;;;;;5095414;28;20048;-77
2021/10/26 02:21:02;;;;;;;69.38;43.25;;;154.00;2252.80;;;;;;5095344;28;20119;-77
2021/10/26 02:23:29;;;;;;;57.20;36.45;;;154.10;2252.80;;;;;;5095065;28;20110;-76
2021/10/26 02:25:55;;;;;;;56.65;34.47;;;154.00;2252.80;;;;;;5097136;28;20103;-76
2021/10/26 02:28:21;;;;;;;64.93;39.33;;;154.00;2252.80;;;;;;5097177;28;20024;-76
2021/10/26 02:30:47;;;;;;;62.22;40.38;;;153.90;2252.80;;;;;;5096148;28;20028;-76
2021/10/26 02:33:14;;;;;;;57.78;35.85;;;154.00;2252.80;;;;;;5094653;28;20020;-75
2021/10/26 02:35:40;;;;;;;55.60;34.20;;;154.00;2252.80;;;;;;5096628;28;20028;-75
2021/10/26 02:38:06;;;;;;;41.00;25.40;;;154.00;2252.80;;;;;;5094859;28;20028;-74
2021/10/26 02:40:33;;;;;;;44.92;29.65;;;154.00;2252.80;;;;;;5095970;28;20108;-75
2021/10/26 02:42:58;;;;;;;74.65;48.70;;;154.00;2252.80;;;;;;5096216;28;20059;-77
2021/10/26 02:45:28;;;;;;;68.95;40.97;;;153.80;2252.80;;;;;;5094734;28;20418;-75
2021/10/26 02:47:55;;;;;;;70.57;48.08;;;153.90;2252.80;;;;;;5094916;28;20378;-76
2021/10/26 02:50:21;;;;;;;79.32;54.70;;;153.90;2252.80;;;;;;5094870;28;20363;-77
2021/10/26 02:52:47;;;;;;;76.63;48.42;;;153.80;2252.80;;;;;;5094525;28;20024;-75
2021/10/26 02:55:12;;;;;;;115.18;73.43;;;153.90;2252.80;;;;;;5096037;28;20020;-77
2021/10/26 02:57:38;;;;;;;95.35;61.80;;;128.80;2252.80;;;;;;5094414;28;20155;-76
2021/10/26 03:00:10;;;;;;;116.97;76.53;;;128.90;2252.80;;;;;;5095460;28;20041;-76
2021/10/26 03:02:36;;;;;;;117.30;72.30;;;128.90;2252.80;;;;;;5096069;28;20106;-76
2021/10/26 03:05:03;;;;;;;114.72;71.85;;;128.70;2252.80;;;;;;5095749;28;20099;-75
2021/10/26 03:07:29;;;;;;;99.10;62.95;;;128.90;2252.80;;;;;;5094600;28;20020;-76
2021/10/26 03:09:55;;;;;;;92.85;60.17;;;153.60;2252.80;;;;;;5094512;28;20016;-75
2021/10/26 03:12:20;;;;;;;78.95;50.85;;;128.90;2252.80;;;;;;5094159;28;20020;-75
2021/10/26 03:14:46;;;;;;;80.70;52.97;;;128.90;2252.80;;;;;;5094416;28;20479;-75
2021/10/26 03:17:12;;;;;;;80.00;50.67;;;128.90;2252.80;;;;;;5095715;28;20020;-75
2021/10/26 03:19:38;;;;;;;64.25;44.40;;;153.60;2252.80;;;;;;5094038;28;20023;-75
2021/10/26 03:22:04;;;;;;;58.08;40.38;;;153.70;2252.80;;;;;;5094220;28;20020;-75
2021/10/26 03:24:30;;;;;;;61.75;39.22;;;128.90;2252.80;;;;;;5094148;28;20036;-76
2021/10/26 03:26:56;;;;;;;62.97;39.67;;;153.60;2252.80;;;;;;5095128;28;20016;-75
2021/10/26 03:29:22;;;;;;;52.60;36.13;;;153.60;2252.80;;;;;;5094095;28;20023;-75
2021/10/26 03:31:52;;;;;;;65.00;41.88;;;153.60;2252.80;;;;;;5095613;28;20024;-75
2021/10/26 03:34:18;;;;;;;59.85;38.88;;;128.90;2252.80;;;;;;5093778;28;20104;-75
2021/10/26 03:36:44;;;;;;;67.95;41.38;;;128.80;2252.80;;;;;;5093931;28;20024;-75
2021/10/26 03:39:10;;;;;;;60.22;38.22;;;128.90;2252.80;;;;;;5093918;28;20030;-75
2021/10/26 03:41:36;;;;;;;80.68;51.28;;;128.90;2252.80;;;;;;5093604;28;20409;-75
2021/10/26 03:44:01;;;;;;;87.57;56.40;;;153.60;2252.80;;;;;;5093393;28;20062;-76
2021/10/26 03:46:27;;;;;;;141.02;88.95;;;153.70;2252.80;;;;;;5094252;28;20020;-75
2021/10/26 03:48:53;;;;;;;167.68;111.82;;;153.70;2252.80;;;;;;5093445;28;20051;-74
2021/10/26 03:51:19;;;;;;;176.27;114.18;;;128.90;2252.80;;;;;;5095190;28;20028;-75
2021/10/26 03:53:45;;;;;;;111.00;73.35;;;128.50;2252.80;;;;;;5093004;28;20042;-76
2021/10/26 03:56:11;;;;;;;77.03;52.47;;;128.40;2252.80;;;;;;5094825;28;20047;-73
2021/10/26 03:58:40;;;;;;;82.93;53.55;;;128.10;2252.80;;;;;;5093583;28;20052;-75
2021/10/26 04:01:06;;;;;;;71.30;48.95;;;128.10;2252.80;;;;;;5094377;28;20086;-75
2021/10/26 04:03:32;;;;;;;89.75;62.50;;;128.00;2252.80;;;;;;5094966;28;20020;-77
2021/10/26 04:10:57;;;;;;;114.88;77.28;;;128.40;2252.80;;;;;;5094649;28;20032;-74
2021/10/26 04:13:25;;;;;;;94.13;63.63;;;128.10;2252.80;;;;;;5094623;28;20047;-74
2021/10/26 04:15:51;;;;;;;86.72;56.15;;;128.30;2252.80;;;;;;5092829;28;20475;-75
2021/10/26 04:18:17;;;;;;;80.43;55.38;;;128.40;2252.80;;;;;;5093251;28;20513;-74
2021/10/26 04:20:43;;;;;;;88.22;55.30;;;128.50;2252.80;;;;;;5093200;28;20028;-74
2021/10/26 04:23:09;;;;;;;84.72;54.50;;;128.30;2252.80;;;;;;5092904;28;20034;-75
2021/10/26 04:25:35;;;;;;;77.53;48.50;;;128.30;2252.80;;;;;;5094389;28;20364;-76
2021/10/26 04:28:03;;;;;;;62.45;41.33;;;128.50;2252.80;;;;;;5092862;28;20027;-74
2021/10/26 04:30:31;;;;;;;51.90;37.47;;;128.60;2252.80;;;;;;5092747;28;20020;-74
2021/10/26 04:32:57;;;;;;;71.05;46.40;;;128.40;2252.80;;;;;;5094485;28;20030;-74
2021/10/26 04:35:23;;;;;;;104.03;67.80;;;128.20;2252.80;;;;;;5092869;28;20020;-74
2021/10/26 04:37:49;;;;;;;120.13;70.63;;;103.30;2227.20;;;;;;5093958;28;20024;-77
2021/10/26 04:40:15;;;;;;;144.18;82.68;;;128.10;2252.80;;;;;;5092749;28;20120;-78
2021/10/26 04:42:41;;;;;;;202.35;124.50;;;128.10;2252.80;;;;;;5092319;28;20024;-78
2021/10/26 04:45:08;;;;;;;213.27;141.23;;;128.00;2252.80;;;;;;5092747;28;20024;-75
2021/10/26 04:47:34;;;;;;;201.00;126.13;;;103.10;2227.20;;;;;;5092994;28;20028;-76
2021/10/26 04:49:59;;;;;;;257.17;146.48;;;103.20;2227.20;;;;;;5093680;28;20523;-77
2021/10/26 04:52:25;;;;;;;191.90;118.70;;;128.00;2252.80;;;;;;5092744;28;20440;-76
2021/10/26 04:54:51;;;;;;;155.13;100.43;;;128.10;2252.80;;;;;;5094270;28;20073;-76
2021/10/26 04:57:17;;;;;;;166.70;106.28;;;103.30;2227.20;;;;;;5092163;28;20020;-77
2021/10/26 04:59:43;;;;;;;143.57;84.63;;;128.20;2252.80;;;;;;5092353;28;20020;-76
2021/10/26 05:02:09;;;;;;;80.80;50.17;;;128.20;2252.80;;;;;;5093968;28;20052;-77
2021/10/26 05:04:35;;;;;;;78.47;47.80;;;128.30;2252.80;;;;;;5092219;28;20051;-77
2021/10/26 05:07:01;;;;;;;73.65;44.47;;;128.40;2252.80;;;;;;5092589;28;20023;-78
2021/10/26 05:09:27;;;;;;;65.28;39.60;;;128.50;2252.80;;;;;;5092519;28;20460;-77
2021/10/26 05:11:53;;;;;;;69.43;44.70;;;128.50;2252.80;;;;;;5092137;28;20055;-76
2021/10/26 05:14:19;;;;;;;99.10;63.03;;;128.50;2252.80;;;;;;5092500;28;20606;-77
2021/10/26 05:16:46;;;;;;;86.57;60.03;;;128.20;2252.80;;;;;;5092516;28;20024;-77
2021/10/26 05:19:13;;;;;;;81.85;55.60;;;128.30;2252.80;;;;;;5092072;28;20107;-77
2021/10/26 05:21:38;;;;;;;99.45;62.40;;;128.30;2252.80;;;;;;5093606;28;20024;-78
2021/10/26 05:24:04;;;;;;;95.00;61.33;;;128.40;2252.80;;;;;;5092417;28;20031;-77
2021/10/26 05:26:34;;;;;;;118.18;74.78;;;128.50;2252.80;;;;;;5092023;28;20020;-75
2021/10/26 05:29:00;;;;;;;266.60;184.23;;;128.10;2252.80;;;;;;5092513;28;20024;-77
2021/10/26 05:31:27;;;;;;;156.32;101.88;;;103.30;2227.20;;;;;;5092340;28;20368;-75
2021/10/26 05:33:53;;;;;;;217.85;140.77;;;128.10;2252.80;;;;;;5091977;28;20020;-77
2021/10/26 05:36:19;;;;;;;251.32;170.95;;;103.20;2227.20;;;;;;5092281;28;20024;-77
2021/10/26 05:38:45;;;;;;;157.40;104.82;;;102.90;2227.20;;;;;;5091898;28;20028;-75
2021/10/26 05:41:12;;;;;;;153.73;100.15;;;102.80;2227.20;;;;;;5093516;28;20112;-77
2021/10/26 05:43:39;;;;;;;150.75;103.75;;;102.90;2227.20;;;;;;5092267;28;20448;-77
2021/10/26 05:46:05;;;;;;;148.40;98.50;;;103.10;2227.20;;;;;;5091937;28;20027;-77
2021/10/26 05:48:32;;;;;;;130.27;83.80;;;128.00;2252.80;;;;;;5092194;28;20027;-77
2021/10/26 05:51:01;;;;;;;251.98;167.13;;;103.30;2227.20;;;;;;5092197;28;20028;-75
2021/10/26 05:53:28;;;;;;;319.27;203.15;;;103.00;2227.20;;;;;;5093078;28;20502;-77
2021/10/26 05:55:54;;;;;;;336.88;214.50;;;102.90;2227.20;;;;;;5093606;28;20420;-77
2021/10/26 05:58:20;;;;;;;235.68;146.27;;;103.00;2227.20;;;;;;5093350;28;20106;-78
2021/10/26 06:00:46;;;;;;;217.43;128.30;;;102.80;2227.20;;;;;;5092849;28;20055;-76
2021/10/26 06:03:12;;;;;;;228.90;145.90;;;102.90;2227.20;;;;;;5093320;28;20024;-78
2021/10/26 06:05:38;;;;;;;176.38;115.72;;;102.80;2227.20;;;;;;5092099;28;20486;-77
2021/10/26 06:08:08;;;;;;;330.17;219.18;;;102.90;2227.20;;;;;;5092679;28;20046;-78
2021/10/26 06:10:40;;;;;;;236.40;158.38;;;103.00;2227.20;;;;;;5095636;28;20456;-77
2021/10/26 06:13:10;;;;;;;194.90;129.35;;;103.10;2227.20;;;;;;5095829;28;20434;-78
2021/10/26 06:15:36;;;;;;;185.60;120.18;;;103.30;2227.20;;;;;;5095276;28;20054;-77
2021/10/26 06:18:02;;;;;;;165.20;110.72;;;128.00;2252.80;;;;;;5095451;28;20020;-78
2021/10/26 06:20:28;;;;;;;172.68;111.15;;;128.20;2252.80;;;;;;5096622;28;20031;-78
2021/10/26 06:22:54;;;;;;;304.00;191.77;;;128.50;2252.80;;;;;;5095144;28;20519;-78
2021/10/26 06:25:20;;;;;;;180.80;121.57;;;128.20;2252.80;;;;;;5096728;28;20111;-75
2021/10/26 06:27:46;;;;;;;168.50;108.50;;;128.10;2252.80;;;;;;5096581;28;20034;-75
2021/10/26 06:30:11;;;;;;;166.65;113.22;;;128.40;2252.80;;;;;;5095277;28;20032;-78
2021/10/26 06:32:41;;;;;;;198.50;127.35;;;128.70;2252.80;;;;;;5095230;28;20024;-78
2021/10/26 06:35:12;;;;;;;288.27;196.57;;;128.80;2252.80;;;;;;5095918;28;20027;-76
2021/10/26 06:37:43;;;;;;;231.63;155.07;;;128.70;2252.80;;;;;;5096519;28;20022;-76
2021/10/26 06:40:11;;;;;;;224.15;151.63;;;128.50;2252.80;;;;;;5095126;28;20024;-78
2021/10/26 06:42:38;;;;;;;201.73;134.27;;;128.50;2252.80;;;;;;5094767;28;20356;-78
2021/10/26 06:45:04;;;;;;;197.63;135.60;;;128.30;2252.80;;;;;;5095088;28;20180;-76
2021/10/26 06:47:30;;;;;;;202.88;139.85;;;128.50;2252.80;;;;;;5095867;28;20361;-77
2021/10/26 06:49:55;;;;;;;203.65;144.35;;;128.50;2252.80;;;;;;5094609;28;20073;-75
2021/10/26 06:52:21;;;;;;;175.43;111.05;;;128.70;2252.80;;;;;;5095077;28;20504;-75
2021/10/26 06:54:47;;;;;;;100.10;65.47;;;128.70;2252.80;;;;;;5096282;28;20020;-76
2021/10/26 06:57:15;;;;;;;96.65;67.47;;;128.80;2252.80;;;;;;5094526;28;20348;-75
2021/10/26 06:59:41;;;;;;;78.90;56.17;;;153.60;2252.80;;;;;;5094510;28;20020;-74
2021/10/26 07:02:07;;;;;;;71.60;49.90;;;153.80;2252.80;;;;;;5095976;28;20367;-75
2021/10/26 07:04:35;;;;;;;57.05;39.30;;;154.00;2252.80;;;;;;5094281;28;20020;-74
2021/10/26 07:07:01;;;;;;;54.35;38.67;;;154.10;2252.80;;;;;;5094555;28;20052;-74
2021/10/26 07:09:27;;;;;;;50.92;34.08;;;154.20;2252.80;;;;;;5095792;28;20103;-75
2021/10/26 07:11:53;;;;;;;45.13;32.03;;;154.30;2252.80;;;;;;5095472;28;20111;-74
2021/10/26 07:14:19;;;;;;;44.22;27.65;;;154.40;2252.80;;;;;;5094412;28;20052;-72
2021/10/26 07:16:45;;;;;;;45.60;27.58;;;179.20;2252.80;;;;;;5095319;28;20016;-72
2021/10/26 07:19:11;;;;;;;40.40;27.92;;;179.20;2252.80;;;;;;5095605;28;20094;-72
2021/10/26 07:21:38;;;;;;;36.85;25.42;;;179.40;2252.80;;;;;;5095201;28;20371;-71
2021/10/26 07:24:04;;;;;;;56.08;37.35;;;179.40;2252.80;;;;;;5095273;28;20023;-72
2021/10/26 07:26:30;;;;;;;48.58;34.25;;;179.50;2252.80;;;;;;5095369;28;20024;-72
2021/10/26 07:28:57;;;;;;;45.80;30.95;;;179.50;2252.80;;;;;;5094068;28;20031;-72
2021/10/26 07:31:26;;;;;;;49.42;33.55;;;179.60;2252.80;;;;;;5093684;28;20035;-72
2021/10/26 07:33:56;;;;;;;51.55;33.33;;;179.70;2252.80;;;;;;5095250;28;20027;-72
2021/10/26 07:36:26;;;;;;;49.25;31.30;;;179.80;2252.80;;;;;;5094007;28;20455;-73
2021/10/26 07:39:05;;;;;;;30.73;24.60;;;179.90;2252.80;;;;;;5094152;28;20032;-73
2021/10/26 07:41:31;;;;;;;36.08;25.88;;;180.00;2252.80;;;;;;5090432;28;20035;-74
2021/10/26 07:43:57;;;;;;;44.50;33.90;;;180.10;2252.80;;;;;;5094775;28;20012;-73
2021/10/26 07:46:23;;;;;;;46.38;36.17;;;180.10;2252.80;;;;;;5094309;28;20520;-73
2021/10/26 07:48:49;;;;;;;44.60;34.33;;;179.90;2252.80;;;;;;5093609;28;20016;-74
2021/10/26 07:51:15;;;;;;;48.20;36.88;;;204.90;2252.80;;;;;;5095222;28;20027;-74
2021/10/26 07:53:41;;;;;;;54.45;39.65;;;205.00;2252.80;;;;;;5094864;28;20444;-76
2021/10/26 07:56:08;;;;;;;71.30;54.63;;;205.10;2252.80;;;;;;5094885;28;20425;-76
2021/10/26 07:58:36;;;;;;;57.45;44.50;;;205.20;2252.80;;;;;;5093357;28;20023;-75
2021/10/26 08:01:02;;;;;;;100.85;70.60;;;205.20;2252.80;;;;;;5094578;28;20505;-75
2021/10/26 08:03:28;;;;;;;49.47;33.08;;;205.30;2252.80;;;;;;5093436;28;20030;-75
2021/10/26 08:05:54;;;;;;;36.20;27.75;;;205.30;2252.80;;;;;;5093071;28;20114;-76
2021/10/26 08:08:20;;;;;;;31.92;22.23;;;205.40;2252.80;;;;;;5093330;28;20027;-76
2021/10/26 08:10:47;;;;;;;42.20;26.77;;;205.60;2252.80;;;;;;5093470;28;20028;-76
2021/10/26 08:13:13;;;;;;;29.90;23.58;;;205.70;2252.80;;;;;;5093008;28;20058;-74
2021/10/26 08:15:40;;;;;;;33.17;24.90;;;205.40;2252.80;;;;;;5093302;28;20480;-75
2021/10/26 08:18:06;;;;;;;41.00;28.35;;;230.40;2252.80;;;;;;5093161;28;20103;-77
2021/10/26 08:20:32;;;;;;;43.25;28.30;;;230.40;2252.80;;;;;;5094092;28;20138;-75
2021/10/26 08:22:58;;;;;;;35.17;23.52;;;230.50;2252.80;;;;;;5093130;28;20016;-75
2021/10/26 08:25:27;;;;;;;28.02;19.52;;;230.60;2252.80;;;;;;5094906;28;20169;-75
2021/10/26 08:27:56;;;;;;;23.65;20.02;;;230.80;2252.80;;;;;;5092721;28;20016;-75
2021/10/26 08:36:17;;;;;;;36.83;21.80;;;231.30;2252.80;;;;;;5093904;28;20086;-74
2021/10/26 08:38:43;;;;;;;26.92;17.50;;;231.30;2252.80;;;;;;5094118;28;20028;-73
2021/10/26 08:41:09;;;;;;;31.35;19.80;;;231.30;2252.80;;;;;;5092623;28;20114;-73
2021/10/26 08:43:36;;;;;;;34.47;20.08;;;256.00;2252.80;;;;;;5092814;28;20440;-72
2021/10/26 08:46:08;;;;;;;24.20;18.52;;;256.10;2252.80;;;;;;5094001;28;20020;-74
2021/10/26 08:48:40;;;;;;;28.25;18.50;;;256.20;2252.80;;;;;;5092464;28;20020;-75
2021/10/26 08:51:06;;;;;;;30.00;21.02;;;256.20;2252.80;;;;;;5093247;28;20526;-74
2021/10/26 08:53:32;;;;;;;22.88;16.58;;;256.40;2252.80;;;;;;5092881;28;20027;-74
2021/10/26 08:56:02;;;;;;;27.13;16.63;;;256.40;2252.80;;;;;;5093394;28;20020;-73
2021/10/26 08:58:29;;;;;;;18.65;13.68;;;256.50;2252.80;;;;;;5092414;28;20020;-73
2021/10/26 09:00:56;;;;;;;27.38;15.18;;;256.90;2252.80;;;;;;5092013;28;20044;-73
2021/10/26 09:03:25;;;;;;;28.92;18.73;;;281.60;2278.40;;;;;;5091656;28;20027;-73
2021/10/26 09:05:52;;;;;;;23.65;16.88;;;281.60;2278.40;;;;;;5093662;28;20035;-73
2021/10/26 09:08:23;;;;;;;23.35;15.82;;;281.60;2278.40;;;;;;5093566;28;20016;-75
2021/10/26 09:10:50;;;;;;;17.17;11.90;;;281.70;2278.40;;;;;;5092173;28;20034;-72
2021/10/26 09:16:47;;;;;;;24.98;15.73;;;282.00;2278.40;;;;;;5093547;28;20066;-73
2021/10/26 09:19:23;;;;;;;21.60;13.13;;;282.10;2278.40;;;;;;5091636;28;20020;-73
2021/10/26 09:22:05;;;;;;;17.42;13.27;;;282.20;2278.40;;;;;;5091550;28;20166;-73
2021/10/26 09:24:32;;;;;;;17.58;12.10;;;282.50;2278.40;;;;;;5092538;28;20028;-73
2021/10/26 09:27:01;;;;;;;15.88;11.88;;;282.50;2278.40;;;;;;5092115;28;20456;-73
2021/10/26 09:29:28;;;;;;;18.88;12.40;;;307.20;2304.00;;;;;;5092122;28;20107;-73
2021/10/26 09:32:03;;;;;;;17.17;12.30;;;282.50;2278.40;;;;;;5091851;28;20035;-73
2021/10/26 09:34:48;;;;;;;23.08;14.70;;;307.20;2304.00;;;;;;5093152;28;20024;-72
2021/10/26 09:37:16;;;;;;;20.75;13.88;;;307.40;2304.00;;;;;;5093471;28;20024;-73
2021/10/26 09:39:56;;;;;;;16.33;12.10;;;307.40;2304.00;;;;;;5093710;28;20043;-73
2021/10/26 09:42:44;;;;;;;30.15;19.38;;;307.40;2304.00;;;;;;5093397;28;20115;-73
2021/10/26 09:45:32;;;;;;;28.40;17.60;;;307.50;2304.00;;;;;;5096682;28;20450;-72
2021/10/26 09:48:13;;;;;;;35.20;26.08;;;307.60;2304.00;;;;;;5095559;28;20031;-74
2021/10/26 09:50:41;;;;;;;36.28;27.58;;;307.60;2304.00;;;;;;5095768;28;20165;-71
2021/10/26 09:53:12;;;;;;;25.77;19.33;;;307.70;2304.00;;;;;;5095922;28;20016;-72
2021/10/26 09:55:44;;;;;;;23.67;13.95;;;307.80;2304.00;;;;;;5097228;28;20103;-72
2021/10/26 09:58:15;;;;;;;22.77;15.48;;;307.90;2304.00;;;;;;5095667;28;20024;-73
2021/10/26 10:00:44;;;;;;;32.22;22.45;;;308.10;2304.00;;;;;;5096989;28;20044;-73
2021/10/26 10:03:13;;;;;;;24.45;15.60;;;332.80;2329.60;;;;;;5095891;28;20479;-73
2021/10/26 10:05:56;;;;;;;57.83;36.25;;;332.80;2329.60;;;;;;5095682;28;20051;-72
2021/10/26 10:08:27;;;;;;;46.00;29.67;;;333.00;2329.60;;;;;;5095869;28;20111;-75
2021/10/26 10:11:17;;;;;;;22.90;14.45;;;333.00;2329.60;;;;;;5096950;28;20027;-74
2021/10/26 10:13:51;;;;;;;23.83;15.27;;;333.10;2329.60;;;;;;5095491;28;20398;-73
2021/10/26 10:16:18;;;;;;;25.10;17.65;;;333.30;2329.60;;;;;;5095324;28;20023;-75
2021/10/26 10:18:46;;;;;;;19.67;12.02;;;333.50;2329.60;;;;;;5095088;28;20035;-74
2021/10/26 10:21:17;;;;;;;17.20;10.35;;;333.60;2329.60;;;;;;5096749;28;20028;-75
2021/10/26 10:23:47;;;;;;;22.13;12.68;;;333.70;2329.60;;;;;;5095466;28;20024;-75
2021/10/26 10:26:16;;;;;;;19.63;12.05;;;333.50;2329.60;;;;;;5094907;28;20020;-74
2021/10/26 10:28:47;;;;;;;38.85;25.80;;;333.70;2329.60;;;;;;5094654;28;20115;-74
2021/10/26 10:31:16;;;;;;;34.92;15.52;;;358.40;2329.60;;;;;;5094853;28;20024;-72
2021/10/26 10:33:49;;;;;;;25.38;15.63;;;358.40;2329.60;;;;;;5096465;28;20028;-75
2021/10/26 10:36:25;;;;;;;15.43;10.57;;;358.50;2329.60;;;;;;5095207;28;20015;-74
2021/10/26 10:38:54;;;;;;;12.52;8.73;;;358.70;2329.60;;;;;;5096407;28;20016;-75
2021/10/26 10:41:28;;;;;;;20.25;13.40;;;358.80;2329.60;;;;;;5094645;28;20122;-73
2021/10/26 10:44:00;;;;;;;25.27;13.30;;;358.90;2329.60;;;;;;5096361;28;20443;-73
2021/10/26 10:46:44;;;;;;;19.13;10.73;;;358.90;2329.60;;;;;;5096484;28;20020;-73
2021/10/26 10:49:19;;;;;;;12.82;8.63;;;359.00;2329.60;;;;;;5094918;28;20118;-73
2021/10/26 10:51:59;;;;;;;19.48;12.48;;;359.20;2304.00;;;;;;5094897;28;20464;-73
2021/10/26 10:54:38;;;;;;;26.58;16.92;;;359.30;2329.60;;;;;;5095580;28;20020;-73
2021/10/26 10:57:27;;;;;;;20.02;12.85;;;384.10;2304.00;;;;;;5095005;28;20053;-73
2021/10/26 10:59:55;;;;;;;17.15;10.50;;;384.40;2252.80;;;;;;5094710;28;20027;-74
2021/10/26 11:02:46;;;;;;;18.27;10.20;;;384.60;2201.60;;;;;;5095513;28;20024;-73
2021/10/26 11:05:38;;;;;;;18.60;12.85;;;384.70;2227.20;;;;;;5087963;28;20024;-73
2021/10/26 11:08:14;;;;;;;19.02;12.90;;;384.80;2201.60;;;;;;5094532;28;20471;-73
2021/10/26 11:10:49;;;;;;;25.60;18.50;;;409.60;2176.00;;;;;;5096817;28;20102;-73
2021/10/26 11:13:24;;;;;;;20.63;12.80;;;409.90;2124.80;;;;;;5095239;28;20016;-73
2021/10/26 11:15:53;;;;;;;25.08;17.08;;;410.30;2099.20;;;;;;5096585;28;20020;-73
2021/10/26 11:18:51;;;;;;;21.00;12.05;;;435.20;2073.60;;;;;;5095169;28;20081;-74
2021/10/26 11:21:24;;;;;;;16.33;10.15;;;435.40;2022.40;;;;;;5096160;28;20071;-72
2021/10/26 11:24:01;;;;;;;15.23;10.48;;;435.80;1996.80;;;;;;5094413;28;20027;-73
2021/10/26 11:26:44;;;;;;;16.60;10.23;;;436.00;1996.80;;;;;;5096235;28;20019;-73
2021/10/26 11:29:28;;;;;;;17.45;10.93;;;460.80;1920.00;;;;;;5094705;28;20031;-74
2021/10/26 11:31:55;;;;;;;19.77;14.45;;;461.10;1920.00;;;;;;5095531;28;20063;-73
2021/10/26 11:34:24;;;;;;;18.65;11.25;;;461.40;1894.40;;;;;;5093964;28;20398;-73
2021/10/26 11:37:08;;;;;;;17.13;10.23;;;461.50;1894.40;;;;;;5093682;28;20028;-73
2021/10/26 11:39:37;;;;;;;14.13;9.82;;;461.60;1843.20;;;;;;5093860;28;20027;-72
2021/10/26 11:42:08;;;;;;;17.67;11.30;;;461.70;1843.20;;;;;;5093762;28;20062;-72
2021/10/26 11:44:35;;;;;;;10.45;8.07;;;486.60;1817.60;;;;;;5093547;28;20069;-74
2021/10/26 11:47:02;;;;;;;15.00;11.30;;;486.70;1817.60;;;;;;5095133;28;20081;-74
2021/10/26 11:49:31;;;;;;;13.60;10.02;;;486.90;1766.40;;;;;;5093802;28;20432;-73
2021/10/26 11:52:03;;;;;;;17.88;10.65;;;486.90;1740.80;;;;;;5094945;28;20024;-74
2021/10/26 11:54:37;;;;;;;14.43;11.05;;;486.90;1740.80;;;;;;5094724;28;20340;-74
2021/10/26 11:57:05;;;;;;;13.32;9.27;;;487.10;1715.20;;;;;;5093261;28;20077;-74
2021/10/26 11:59:35;;;;;;;16.88;9.02;;;487.30;1740.80;;;;;;5093669;28;20161;-73
2021/10/26 12:02:05;;;;;;;14.93;11.23;;;487.30;1689.60;;;;;;5094522;28;20032;-74
2021/10/26 12:04:39;;;;;;;15.13;10.77;;;487.30;1664.00;;;;;;5094450;28;20016;-74
2021/10/26 12:07:09;;;;;;;14.75;10.95;;;512.00;1715.20;;;;;;5092790;28;20016;-74
2021/10/26 12:09:39;;;;;;;14.15;8.27;;;512.20;1638.40;;;;;;5093352;28;20020;-74
2021/10/26 12:12:21;;;;;;;16.95;11.18;;;487.30;1612.80;;;;;;5094371;28;20024;-74
2021/10/26 12:14:48;;;;;;;;;;;512.30;1638.40;;;;;;5093827;28;20024;-74
2021/10/26 12:17:32;;;;;;;21.08;11.10;;;512.30;1612.80;;;;;;5094518;28;19907;-74